createdAt,value
2019-01-03T00:02:18.987Z,72.33
2019-01-03T00:05:04.680Z,72.44
2019-01-03T00:13:31.663Z,72.25
2019-01-03T00:16:17.314Z,72.29
2019-01-03T00:19:04.154Z,72.73
2019-01-03T00:21:49.908Z,72.82
2019-01-03T00:24:35.564Z,72.54
2019-01-03T00:27:21.240Z,72.65
2019-01-03T00:30:06.874Z,73.06
2019-01-03T00:32:52.553Z,72.99
2019-01-03T00:35:38.208Z,72.79
2019-01-03T00:38:23.860Z,73.53
2019-01-03T00:41:09.540Z,73.56
2019-01-03T00:43:55.181Z,73.82
2019-01-03T00:49:14.565Z,74.31
2019-01-03T00:52:00.221Z,74.30
2019-01-03T00:54:46.035Z,74.34
2019-01-03T00:57:31.686Z,74.75
2019-01-03T01:00:17.323Z,74.52
2019-01-03T01:08:25.195Z,75.00
2019-01-03T01:11:11.056Z,74.71
2019-01-03T01:16:34.974Z,74.68
2019-01-03T01:19:20.641Z,74.84
2019-01-03T01:22:06.323Z,75.04
2019-01-03T01:24:51.964Z,75.08
2019-01-03T01:27:37.609Z,75.21
2019-01-03T01:33:30.573Z,75.04
2019-01-03T01:39:03.511Z,75.20
2019-01-03T01:41:49.159Z,74.84
2019-01-03T01:44:34.815Z,75.10
2019-01-03T01:50:07.764Z,75.42
2019-01-03T01:52:53.402Z,75.34
2019-01-03T01:55:39.185Z,75.36
2019-01-03T01:58:24.773Z,75.49
2019-01-03T02:03:44.329Z,75.66
2019-01-03T02:06:29.989Z,75.67
2019-01-03T02:09:15.660Z,75.98
2019-01-03T02:12:01.303Z,76.04
2019-01-03T02:14:46.950Z,76.27
2019-01-03T02:17:32.619Z,76.34
2019-01-03T02:20:18.268Z,76.28
2019-01-03T02:23:03.964Z,76.72
2019-01-03T02:25:49.605Z,76.72
2019-01-03T02:28:35.247Z,76.93
2019-01-03T02:31:20.895Z,76.80
2019-01-03T02:34:06.534Z,77.07
2019-01-03T02:36:52.191Z,77.52
2019-01-03T02:47:41.189Z,78.53
2019-01-03T02:50:26.848Z,78.37
2019-01-03T02:53:12.484Z,78.83
2019-01-03T03:01:30.654Z,78.94
2019-01-03T03:04:16.375Z,79.28
2019-01-03T03:07:02.731Z,79.65
2019-01-03T03:09:48.390Z,79.52
2019-01-03T03:12:34.055Z,79.58
2019-01-03T03:15:19.686Z,79.49
2019-01-03T03:23:17.047Z,79.90
2019-01-03T03:28:50.013Z,79.65
2019-01-03T03:34:09.552Z,81.20
2019-01-03T03:36:55.213Z,81.59
2019-01-03T03:39:40.850Z,81.74
2019-01-03T03:45:00.296Z,81.95
2019-01-03T03:47:45.956Z,81.76
2019-01-03T03:50:31.587Z,81.86
2019-01-03T03:53:17.244Z,81.53
2019-01-03T03:56:02.894Z,81.61
2019-01-03T03:58:48.548Z,81.59
2019-01-03T04:01:34.189Z,81.50
2019-01-03T04:04:19.839Z,81.57
2019-01-03T04:07:05.499Z,81.56
2019-01-03T04:09:51.170Z,81.14
2019-01-03T04:12:36.838Z,81.00
2019-01-03T04:21:23.134Z,81.38
2019-01-03T04:24:08.786Z,81.44
2019-01-03T04:29:41.756Z,80.95
2019-01-03T04:32:27.417Z,81.00
2019-01-03T04:38:20.254Z,81.42
2019-01-03T04:41:05.891Z,81.45
2019-01-03T04:49:03.180Z,82.36
2019-01-03T04:51:48.815Z,82.69
2019-01-03T04:54:34.480Z,82.94
2019-01-03T05:00:47.220Z,82.67
2019-01-03T05:06:20.152Z,82.19
2019-01-03T05:09:05.857Z,82.27
2019-01-03T05:11:51.485Z,81.97
2019-01-03T05:14:37.151Z,81.81
2019-01-03T05:17:22.783Z,82.23
2019-01-03T05:22:42.352Z,82.61
2019-01-03T05:25:28.006Z,83.00
2019-01-03T05:33:34.504Z,82.54
2019-01-03T05:36:20.170Z,83.04
2019-01-03T05:39:05.814Z,83.19
2019-01-03T05:41:51.467Z,82.74
2019-01-03T05:44:37.111Z,83.08
2019-01-03T05:47:22.759Z,83.35
2019-01-03T05:52:55.738Z,83.73
2019-01-03T05:55:41.389Z,82.63
2019-01-03T05:58:27.042Z,81.91
2019-01-03T06:01:12.700Z,82.67
2019-01-03T06:03:58.348Z,83.52
2019-01-03T06:09:44.025Z,83.40
2019-01-03T06:15:03.716Z,83.33
2019-01-03T06:17:49.412Z,83.78
2019-01-03T06:20:35.107Z,83.59
2019-01-03T06:25:54.384Z,83.65
2019-01-03T06:28:40.035Z,82.92
2019-01-03T06:31:25.688Z,84.23
2019-01-03T06:34:11.348Z,84.00
2019-01-03T06:36:57.011Z,84.22
2019-01-03T06:39:42.683Z,84.28
2019-01-03T06:42:28.314Z,84.00
2019-01-03T06:45:13.963Z,84.29
2019-01-03T06:47:59.631Z,84.86
2019-01-03T06:50:45.271Z,85.94
2019-01-03T06:53:30.933Z,86.12
2019-01-03T06:56:16.600Z,85.61
2019-01-03T06:59:02.288Z,84.44
2019-01-03T07:01:47.906Z,84.29
2019-01-03T07:07:12.591Z,83.42
2019-01-03T07:09:58.269Z,83.32
2019-01-03T07:12:43.919Z,83.14
2019-01-03T07:15:29.593Z,83.47
2019-01-03T07:18:15.250Z,83.52
2019-01-03T07:21:00.888Z,83.67
2019-01-03T07:26:24.566Z,83.42
2019-01-03T07:29:10.220Z,84.49
2019-01-03T07:31:55.870Z,84.72
2019-01-03T07:34:41.527Z,84.54
2019-01-03T07:37:27.167Z,84.65
2019-01-03T07:40:12.830Z,84.58
2019-01-03T07:42:58.466Z,84.49
2019-01-03T07:45:44.129Z,83.92
2019-01-03T07:48:29.811Z,83.92
2019-01-03T07:51:15.471Z,84.53
2019-01-03T07:54:01.147Z,84.58
2019-01-03T07:56:46.836Z,85.11
2019-01-03T07:59:32.447Z,85.50
2019-01-03T08:07:43.476Z,84.78
2019-01-03T08:10:29.135Z,85.47
2019-01-03T08:13:14.784Z,85.34
2019-01-03T08:16:00.443Z,85.10
2019-01-03T08:18:46.098Z,84.88
2019-01-03T08:21:31.746Z,85.68
2019-01-03T08:24:17.392Z,85.82
2019-01-03T08:27:03.049Z,85.34
2019-01-03T08:29:48.697Z,85.29
2019-01-03T08:32:34.354Z,86.01
2019-01-03T08:43:05.823Z,86.83
2019-01-03T08:48:38.774Z,86.25
2019-01-03T08:51:24.475Z,86.44
2019-01-03T08:54:10.105Z,86.20
2019-01-03T08:56:55.760Z,86.60
2019-01-03T08:59:41.403Z,86.07
2019-01-03T09:02:27.044Z,86.34
2019-01-03T09:05:12.697Z,86.39
2019-01-03T09:07:58.346Z,86.29
2019-01-03T09:10:44.003Z,86.20
2019-01-03T09:16:03.602Z,86.74
2019-01-03T09:21:22.644Z,86.78
2019-01-03T09:32:07.547Z,90.02
2019-01-03T09:34:53.188Z,90.99
2019-01-03T09:37:38.847Z,90.55
2019-01-03T09:40:24.488Z,90.54
2019-01-03T09:43:10.151Z,90.40
2019-01-03T09:45:43.949Z,90.76
2019-01-03T09:48:03.566Z,90.68
2019-01-03T09:50:29.317Z,91.40
2019-01-03T09:52:55.093Z,91.15
2019-01-03T09:55:20.840Z,90.93
2019-01-03T09:57:46.614Z,91.05
2019-01-03T10:00:12.366Z,91.41
2019-01-03T10:02:38.166Z,91.39
2019-01-03T10:05:45.614Z,91.10
2019-01-03T10:08:11.371Z,90.78
2019-01-03T10:10:37.134Z,90.41
2019-01-03T10:13:02.896Z,91.09
2019-01-03T10:15:28.650Z,90.40
2019-01-03T10:17:54.431Z,90.33
2019-01-03T10:20:20.184Z,90.00
2019-01-03T10:22:45.939Z,89.61
2019-01-03T10:25:11.714Z,89.80
2019-01-03T10:27:37.466Z,89.26
2019-01-03T10:30:44.898Z,89.38
2019-01-03T10:33:10.653Z,88.94
2019-01-03T10:36:24.151Z,88.39
2019-01-03T10:38:45.789Z,88.78
2019-01-03T10:41:11.672Z,87.82
2019-01-03T10:43:37.426Z,87.71
2019-01-03T10:46:03.180Z,87.04
2019-01-03T10:48:28.934Z,86.88
2019-01-03T10:50:54.725Z,86.57
2019-01-03T10:53:20.479Z,85.84
2019-01-03T10:55:46.252Z,85.79
2019-01-03T10:58:12.024Z,85.43
2019-01-03T11:03:16.046Z,84.39
2019-01-03T11:08:55.810Z,83.61
2019-01-03T11:14:48.809Z,84.00
2019-01-03T11:17:14.560Z,84.14
2019-01-03T11:19:40.329Z,83.85
2019-01-03T11:22:06.100Z,84.23
2019-01-03T11:24:31.868Z,84.35
2019-01-03T11:26:57.621Z,84.58
2019-01-03T11:29:23.377Z,84.28
2019-01-03T11:31:49.163Z,84.29
2019-01-03T11:34:14.913Z,84.10
2019-01-03T11:36:40.676Z,83.84
2019-01-03T11:39:06.430Z,83.34
2019-01-03T11:41:32.206Z,83.07
2019-01-03T11:43:57.958Z,83.04
2019-01-03T11:46:23.729Z,83.21
2019-01-03T11:48:49.477Z,82.76
2019-01-03T11:51:15.247Z,82.68
2019-01-03T11:53:41.008Z,83.08
2019-01-03T11:56:06.773Z,83.58
2019-01-03T11:58:32.542Z,82.91
2019-01-03T12:00:58.305Z,83.10
2019-01-03T12:03:24.059Z,83.17
2019-01-03T12:05:49.829Z,83.03
2019-01-03T12:08:15.579Z,83.01
2019-01-03T12:10:41.360Z,83.14
2019-01-03T12:13:07.125Z,83.29
2019-01-03T12:15:32.886Z,83.69
2019-01-03T12:17:58.662Z,83.71
2019-01-03T12:20:24.429Z,83.75
2019-01-03T12:22:50.198Z,83.55
2019-01-03T12:25:15.949Z,83.57
2019-01-03T12:27:41.722Z,83.33
2019-01-03T12:30:49.191Z,83.25
2019-01-03T12:33:14.956Z,83.17
2019-01-03T12:35:40.748Z,83.17
2019-01-03T12:38:06.478Z,82.98
2019-01-03T12:40:32.232Z,82.98
2019-01-03T12:42:58.001Z,82.94
2019-01-03T12:45:23.765Z,83.10
2019-01-03T12:47:49.519Z,82.74
2019-01-03T12:50:15.274Z,82.53
2019-01-03T12:52:41.096Z,82.37
2019-01-03T12:55:06.800Z,82.15
2019-01-03T12:57:32.567Z,82.45
2019-01-03T12:59:58.341Z,82.19
2019-01-03T13:02:24.101Z,82.37
2019-01-03T13:04:49.854Z,82.10
2019-01-03T13:07:15.621Z,81.87
2019-01-03T13:09:41.398Z,81.93
2019-01-03T13:12:07.159Z,82.29
2019-01-03T13:14:32.905Z,82.32
2019-01-03T13:16:58.749Z,82.40
2019-01-03T13:19:24.497Z,82.40
2019-01-03T13:21:50.256Z,82.62
2019-01-03T13:24:16.008Z,82.73
2019-01-03T13:26:41.765Z,82.87
2019-01-03T13:29:07.532Z,82.95
2019-01-03T13:31:33.291Z,83.02
2019-01-03T13:33:59.053Z,83.10
2019-01-03T13:36:24.805Z,83.40
2019-01-03T13:38:50.578Z,83.67
2019-01-03T13:41:16.331Z,83.82
2019-01-03T13:43:42.102Z,83.79
2019-01-03T13:46:07.862Z,83.76
2019-01-03T13:48:33.625Z,83.78
2019-01-03T13:50:59.434Z,84.07
2019-01-03T13:53:25.196Z,84.19
2019-01-03T13:55:50.951Z,84.41
2019-01-03T13:58:16.722Z,84.36
2019-01-03T14:00:42.520Z,84.39
2019-01-03T14:03:08.250Z,84.17
2019-01-03T14:05:34.014Z,83.96
2019-01-03T14:07:59.795Z,83.64
2019-01-03T14:10:25.564Z,83.64
2019-01-03T14:12:51.424Z,83.53
2019-01-03T14:15:17.185Z,83.58
2019-01-03T14:17:42.945Z,83.66
2019-01-03T14:23:22.107Z,83.75
2019-01-03T14:25:47.860Z,83.74
2019-01-03T14:28:13.631Z,83.93
2019-01-03T14:30:39.382Z,83.93
2019-01-03T14:33:05.143Z,83.95
2019-01-03T14:35:30.908Z,84.11
2019-01-03T14:37:56.662Z,84.33
2019-01-03T14:40:22.431Z,84.54
2019-01-03T14:42:48.178Z,84.81
2019-01-03T14:45:13.961Z,84.93
2019-01-03T14:50:46.901Z,85.42
2019-01-03T14:53:12.656Z,85.56
2019-01-03T14:55:38.437Z,85.62
2019-01-03T14:58:04.188Z,85.76
2019-01-03T15:00:29.963Z,86.16
2019-01-03T15:02:55.718Z,86.46
2019-01-03T15:05:21.484Z,86.87
2019-01-03T15:07:47.230Z,86.90
2019-01-03T15:10:13.004Z,87.39
2019-01-03T15:12:38.791Z,87.69
2019-01-03T15:15:46.286Z,87.67
2019-01-03T15:18:12.022Z,87.43
2019-01-03T15:20:37.789Z,87.87
2019-01-03T15:23:03.583Z,87.89
2019-01-03T15:25:29.306Z,88.02
2019-01-03T15:27:55.054Z,87.93
2019-01-03T15:30:20.821Z,87.89
2019-01-03T15:32:46.575Z,88.16
2019-01-03T15:35:12.328Z,88.21
2019-01-03T15:37:38.101Z,88.53
2019-01-03T15:40:45.552Z,88.65
2019-01-03T15:43:11.300Z,88.77
2019-01-03T15:45:37.065Z,88.62
2019-01-03T15:48:02.808Z,88.65
2019-01-03T15:50:28.569Z,88.71
2019-01-03T15:53:14.232Z,88.76
2019-01-03T15:55:40.051Z,88.76
2019-01-03T15:58:05.798Z,88.65
2019-01-03T16:00:31.549Z,88.91
2019-01-03T16:02:57.309Z,88.39
2019-01-03T16:05:23.070Z,88.21
2019-01-03T16:08:08.738Z,87.85
2019-01-03T16:10:34.504Z,87.85
2019-01-03T16:13:00.270Z,88.13
2019-01-03T16:15:26.015Z,88.14
2019-01-03T16:17:51.782Z,88.00
2019-01-03T16:20:17.530Z,88.11
2019-01-03T16:22:43.299Z,88.11
2019-01-03T16:25:09.050Z,88.18
2019-01-03T16:27:34.819Z,88.10
2019-01-03T16:30:00.570Z,88.18
2019-01-03T16:32:26.340Z,88.46
2019-01-03T16:34:52.094Z,88.46
2019-01-03T16:37:17.861Z,88.46
2019-01-03T16:39:43.614Z,88.36
2019-01-03T16:42:09.379Z,88.41
2019-01-03T16:44:35.125Z,88.22
2019-01-03T16:47:00.891Z,88.49
2019-01-03T16:49:26.647Z,88.59
2019-01-03T16:51:52.425Z,88.62
2019-01-03T16:54:18.175Z,88.54
2019-01-03T16:56:43.963Z,88.47
2019-01-03T16:59:09.710Z,88.54
2019-01-03T17:01:35.465Z,88.36
2019-01-03T17:04:01.226Z,88.40
2019-01-03T17:06:26.979Z,88.58
2019-01-03T17:08:52.760Z,88.00
2019-01-03T17:11:18.514Z,88.10
2019-01-03T17:13:44.279Z,87.67
2019-01-03T17:16:10.033Z,87.96
2019-01-03T17:18:35.847Z,88.96
2019-01-03T17:21:01.589Z,89.07
2019-01-03T17:23:27.367Z,89.00
2019-01-03T17:25:53.108Z,89.50
2019-01-03T17:28:18.908Z,89.44
2019-01-03T17:30:44.632Z,89.83
2019-01-03T17:33:10.393Z,90.48
2019-01-03T17:35:36.153Z,90.18
2019-01-03T17:38:01.911Z,90.01
2019-01-03T17:40:27.689Z,90.21
2019-01-03T17:42:53.431Z,90.63
2019-01-03T17:45:19.199Z,90.38
2019-01-03T17:47:44.952Z,89.74
2019-01-03T17:50:10.725Z,89.54
2019-01-03T17:52:36.484Z,89.57
2019-01-03T17:55:02.309Z,89.28
2019-01-03T17:57:28.107Z,89.54
2019-01-03T17:59:53.869Z,89.71
2019-01-03T18:02:19.626Z,89.88
2019-01-03T18:04:45.455Z,90.10
2019-01-03T18:07:11.158Z,90.12
2019-01-03T18:09:36.921Z,90.20
2019-01-03T18:12:02.687Z,90.35
2019-01-03T18:14:28.436Z,90.40
2019-01-03T18:16:54.206Z,90.21
2019-01-03T18:19:19.956Z,90.11
2019-01-03T18:21:45.718Z,89.74
2019-01-03T18:24:11.457Z,89.96
2019-01-03T18:26:37.231Z,90.00
2019-01-03T18:29:02.978Z,89.83
2019-01-03T18:31:28.751Z,89.74
2019-01-03T18:33:54.501Z,89.81
2019-01-03T18:36:20.261Z,89.71
2019-01-03T18:38:46.010Z,89.77
2019-01-03T18:41:11.774Z,89.88
2019-01-03T18:43:37.520Z,89.99
2019-01-03T18:46:03.284Z,90.01
2019-01-03T18:48:29.043Z,89.98
2019-01-03T18:50:54.810Z,90.04
2019-01-03T18:53:20.556Z,90.11
2019-01-03T18:55:46.356Z,90.26
2019-01-03T18:58:12.110Z,90.26
2019-01-03T19:00:37.856Z,89.88
2019-01-03T19:03:03.620Z,89.96
2019-01-03T19:05:29.373Z,89.91
2019-01-03T19:07:55.148Z,89.61
2019-01-03T19:10:20.913Z,89.34
2019-01-03T19:12:46.686Z,89.20
2019-01-03T19:15:12.434Z,89.52
2019-01-03T19:17:38.197Z,89.45
2019-01-03T19:20:23.827Z,89.47
2019-01-03T19:22:49.594Z,89.29
2019-01-03T19:25:15.342Z,89.69
2019-01-03T19:27:41.110Z,89.70
2019-01-03T19:30:48.548Z,89.64
2019-01-03T19:33:14.303Z,90.21
2019-01-03T19:35:40.058Z,90.18
2019-01-03T19:38:05.827Z,90.31
2019-01-03T19:40:31.581Z,90.40
2019-01-03T19:42:57.349Z,90.66
2019-01-03T19:45:23.104Z,90.49
2019-01-03T19:47:48.866Z,90.50
2019-01-03T19:50:56.295Z,90.05
2019-01-03T19:53:22.064Z,90.10
2019-01-03T19:55:47.809Z,89.90
2019-01-03T19:58:13.580Z,90.06
2019-01-03T20:00:39.330Z,89.47
2019-01-03T20:03:05.092Z,89.55
2019-01-03T20:05:30.850Z,89.53
2019-01-03T20:07:56.624Z,89.81
2019-01-03T20:10:22.426Z,89.77
2019-01-03T20:12:48.162Z,89.98
2019-01-03T20:15:13.923Z,89.89
2019-01-03T20:17:39.691Z,89.86
2019-01-03T20:20:52.805Z,89.72
2019-01-03T20:23:14.798Z,89.56
2019-01-03T20:25:40.546Z,89.46
2019-01-03T20:28:06.320Z,89.13
2019-01-03T20:30:32.062Z,89.39
2019-01-03T20:32:57.818Z,88.51
2019-01-03T20:35:23.562Z,87.98
2019-01-03T20:37:49.323Z,88.32
2019-01-03T20:40:15.091Z,88.13
2019-01-03T20:42:40.943Z,88.43
2019-01-03T20:45:26.588Z,88.44
2019-01-03T20:47:52.339Z,88.50
2019-01-03T20:50:18.201Z,88.01
2019-01-03T20:52:43.954Z,87.91
2019-01-03T20:55:09.749Z,87.95
2019-01-03T20:57:35.509Z,88.10
2019-01-03T21:00:01.383Z,88.10
2019-01-03T21:02:27.137Z,87.94
2019-01-03T21:04:52.896Z,88.05
2019-01-03T21:07:18.640Z,88.39
2019-01-03T21:09:44.417Z,88.33
2019-01-03T21:12:10.166Z,88.72
2019-01-03T21:14:35.951Z,89.46
2019-01-03T21:17:01.702Z,89.51
2019-01-03T21:19:27.452Z,89.61
2019-01-03T21:21:53.223Z,89.53
2019-01-03T21:24:19.001Z,89.35
2019-01-03T21:26:44.765Z,89.49
2019-01-03T21:29:10.516Z,89.19
2019-01-03T21:31:36.381Z,88.59
2019-01-03T21:34:02.134Z,88.43
2019-01-03T21:36:27.906Z,88.62
2019-01-03T21:38:53.660Z,88.33
2019-01-03T21:41:19.421Z,88.23
2019-01-03T21:43:45.167Z,88.12
2019-01-03T21:46:11.017Z,88.11
2019-01-03T21:48:36.776Z,88.42
2019-01-03T21:51:02.544Z,88.55
2019-01-03T21:53:28.294Z,88.66
2019-01-03T21:55:54.067Z,88.37
2019-01-03T21:58:19.821Z,87.96
2019-01-03T22:00:45.606Z,88.21
2019-01-03T22:03:12.157Z,88.45
2019-01-03T22:05:39.049Z,88.52
2019-01-03T22:08:04.809Z,88.07
2019-01-03T22:10:30.585Z,88.60
2019-01-03T22:12:56.464Z,88.69
2019-01-03T22:15:22.201Z,88.78
2019-01-03T22:17:47.970Z,88.83
2019-01-03T22:20:13.718Z,88.44
2019-01-03T22:22:46.255Z,88.12
2019-01-03T22:25:12.006Z,88.13
2019-01-03T22:27:37.774Z,88.14
2019-01-03T22:30:45.198Z,88.16
2019-01-03T22:33:10.970Z,88.01
2019-01-03T22:35:36.727Z,87.92
2019-01-03T22:38:02.494Z,87.75
2019-01-03T22:40:28.246Z,87.79
2019-01-03T22:42:54.016Z,87.80
2019-01-03T22:45:19.771Z,87.20
2019-01-03T22:47:45.542Z,87.44
2019-01-03T22:50:11.283Z,87.80
2019-01-03T22:52:37.045Z,87.72
2019-01-03T22:55:44.501Z,87.64
2019-01-03T22:58:10.261Z,87.51
2019-01-03T23:04:03.089Z,87.63
2019-01-03T23:06:28.848Z,87.83
2019-01-03T23:08:54.623Z,87.95
2019-01-03T23:11:20.378Z,88.16
2019-01-03T23:13:46.135Z,88.57
2019-01-03T23:16:11.892Z,88.52
2019-01-03T23:18:37.637Z,88.69
2019-01-03T23:21:03.407Z,88.89
2019-01-03T23:23:29.155Z,88.41
2019-01-03T23:28:28.315Z,88.78
2019-01-03T23:30:54.071Z,89.45
2019-01-03T23:33:19.822Z,89.51
2019-01-03T23:35:45.589Z,90.06
2019-01-03T23:38:11.341Z,89.74
2019-01-03T23:40:37.118Z,88.85
2019-01-03T23:43:03.042Z,88.87
2019-01-03T23:48:22.918Z,89.58
2019-01-03T23:50:48.703Z,89.14
2019-01-03T23:53:14.465Z,89.07
2019-01-03T23:55:40.342Z,89.22
2019-01-03T23:58:06.115Z,88.85
